createdAt,value
2018-06-28T00:00:38.109Z,3.30
2018-06-28T00:03:06.459Z,2.72
2018-06-28T00:05:34.800Z,3.10
2018-06-28T00:08:03.178Z,3.30
2018-06-28T00:10:31.569Z,3.35
2018-06-28T00:12:59.944Z,3.45
2018-06-28T00:15:28.463Z,3.27
2018-06-28T00:17:56.992Z,3.27
2018-06-28T00:20:25.298Z,4.03
2018-06-28T00:22:53.613Z,3.62
2018-06-28T00:25:21.951Z,3.42
2018-06-28T00:27:50.243Z,3.08
2018-06-28T00:30:18.580Z,3.67
2018-06-28T00:32:46.979Z,3.58
2018-06-28T00:35:15.304Z,3.85
2018-06-28T00:37:43.688Z,3.70
2018-06-28T00:40:12.049Z,4.03
2018-06-28T00:42:40.419Z,4.03
2018-06-28T00:45:09.078Z,4.58
2018-06-28T00:47:37.500Z,3.77
2018-06-28T00:50:05.958Z,4.10
2018-06-28T00:52:34.417Z,4.50
2018-06-28T00:55:03.744Z,4.10
2018-06-28T00:57:32.716Z,4.47
2018-06-28T01:00:01.052Z,4.40
2018-06-28T01:02:29.360Z,4.22
2018-06-28T01:04:57.692Z,4.15
2018-06-28T01:07:25.996Z,4.17
2018-06-28T01:09:54.282Z,4.12
2018-06-28T01:12:22.619Z,4.25
2018-06-28T01:14:50.960Z,4.55
2018-06-28T01:17:19.241Z,4.42
2018-06-28T01:19:47.547Z,4.22
2018-06-28T01:22:15.873Z,4.60
2018-06-28T01:24:44.197Z,4.33
2018-06-28T01:27:12.706Z,5.53
2018-06-28T01:29:42.308Z,4.67
2018-06-28T01:32:10.659Z,4.87
2018-06-28T01:34:39.094Z,5.05
2018-06-28T01:37:07.477Z,5.53
2018-06-28T01:39:35.818Z,6.08
2018-06-28T01:42:15.395Z,5.45
2018-06-28T01:44:43.910Z,5.10
2018-06-28T01:47:12.249Z,5.05
2018-06-28T01:49:40.625Z,5.22
2018-06-28T01:52:08.963Z,5.17
2018-06-28T01:54:37.370Z,5.22
2018-06-28T01:57:05.771Z,5.00
2018-06-28T01:59:34.138Z,5.33
2018-06-28T02:02:02.491Z,5.28
2018-06-28T02:04:30.801Z,4.97
2018-06-28T02:06:59.112Z,4.90
2018-06-28T02:09:27.456Z,5.60
2018-06-28T02:11:55.772Z,6.62
2018-06-28T02:14:24.101Z,5.87
2018-06-28T02:16:52.492Z,5.08
2018-06-28T02:19:21.014Z,5.80
2018-06-28T02:21:49.520Z,5.90
2018-06-28T02:24:17.929Z,6.65
2018-06-28T02:26:46.346Z,5.80
2018-06-28T02:29:14.691Z,6.15
2018-06-28T02:31:43.030Z,5.40
2018-06-28T02:34:11.380Z,6.10
2018-06-28T02:36:39.731Z,6.22
2018-06-28T02:39:08.645Z,6.20
2018-06-28T02:41:36.981Z,6.22
2018-06-28T02:44:05.375Z,6.25
2018-06-28T02:46:34.021Z,6.80
2018-06-28T02:49:02.350Z,6.20
2018-06-28T02:51:30.684Z,6.28
2018-06-28T02:53:59.017Z,6.83
2018-06-28T02:56:27.333Z,7.83
2018-06-28T02:58:55.836Z,6.72
2018-06-28T03:01:24.366Z,7.75
2018-06-28T03:03:52.836Z,6.72
2018-06-28T03:06:21.152Z,6.72
2018-06-28T03:08:49.468Z,6.83
2018-06-28T03:11:18.033Z,6.72
2018-06-28T03:13:46.392Z,6.67
2018-06-28T03:16:14.710Z,6.50
2018-06-28T03:18:43.203Z,6.50
2018-06-28T03:21:11.600Z,6.83
2018-06-28T03:23:39.945Z,7.03
2018-06-28T03:26:08.311Z,6.42
2018-06-28T03:28:36.674Z,6.62
2018-06-28T03:31:05.273Z,6.90
2018-06-28T03:33:33.456Z,6.87
2018-06-28T03:36:01.980Z,6.62
2018-06-28T03:38:31.123Z,6.00
2018-06-28T03:40:59.595Z,6.42
2018-06-28T03:43:28.346Z,6.67
2018-06-28T03:45:56.727Z,6.62
2018-06-28T03:48:25.024Z,6.75
2018-06-28T03:50:54.204Z,6.42
2018-06-28T03:53:22.549Z,6.80
2018-06-28T03:55:50.929Z,7.45
2018-06-28T03:58:19.269Z,7.53
2018-06-28T04:00:47.583Z,7.47
2018-06-28T04:03:15.929Z,7.00
2018-06-28T04:05:44.261Z,6.90
2018-06-28T04:08:12.671Z,7.40
2018-06-28T04:10:41.064Z,6.90
2018-06-28T04:13:09.360Z,8.05
2018-06-28T04:15:37.864Z,7.28
2018-06-28T04:18:06.467Z,7.20
2018-06-28T04:20:34.500Z,6.65
2018-06-28T04:23:02.860Z,7.53
2018-06-28T04:25:31.189Z,7.53
2018-06-28T04:27:59.246Z,6.72
2018-06-28T04:30:27.614Z,7.62
2018-06-28T04:32:55.991Z,7.45
2018-06-28T04:35:24.324Z,7.05
2018-06-28T04:37:52.649Z,7.08
2018-06-28T04:40:21.046Z,7.17
2018-06-28T04:42:49.412Z,6.80
2018-06-28T04:45:17.726Z,6.95
2018-06-28T04:47:46.108Z,7.08
2018-06-28T04:50:14.465Z,6.60
2018-06-28T04:52:42.970Z,6.80
2018-06-28T04:55:11.351Z,6.65
2018-06-28T04:57:39.766Z,6.62
2018-06-28T05:00:08.119Z,6.45
2018-06-28T05:02:36.581Z,6.47
2018-06-28T05:05:04.857Z,6.47
2018-06-28T05:07:33.373Z,6.10
2018-06-28T05:10:01.753Z,5.58
2018-06-28T05:12:30.127Z,6.35
2018-06-28T05:14:58.497Z,5.50
2018-06-28T05:17:26.935Z,6.60
2018-06-28T05:19:55.307Z,6.37
2018-06-28T05:22:23.787Z,6.17
2018-06-28T05:24:52.325Z,6.17
2018-06-28T05:27:20.842Z,5.55
2018-06-28T05:29:49.694Z,5.55
2018-06-28T05:32:18.145Z,5.47
2018-06-28T05:34:46.628Z,7.30
2018-06-28T05:37:14.942Z,5.47
2018-06-28T05:39:43.317Z,6.08
2018-06-28T05:42:13.192Z,6.70
2018-06-28T05:44:41.510Z,6.33
2018-06-28T05:47:09.985Z,6.25
2018-06-28T05:49:38.893Z,6.22
2018-06-28T05:52:07.324Z,6.20
2018-06-28T05:54:35.663Z,5.40
2018-06-28T05:57:04.076Z,5.90
2018-06-28T05:59:32.465Z,6.17
2018-06-28T06:11:14.142Z,5.92
2018-06-28T06:13:42.490Z,5.20
2018-06-28T06:16:10.867Z,5.33
2018-06-28T06:18:39.241Z,5.60
2018-06-28T06:21:07.536Z,4.60
2018-06-28T06:23:35.921Z,5.28
2018-06-28T06:26:04.272Z,5.22
2018-06-28T06:28:32.744Z,5.10
2018-06-28T06:31:01.318Z,4.83
2018-06-28T06:33:29.777Z,5.10
2018-06-28T06:35:58.232Z,4.70
2018-06-28T06:38:26.893Z,5.05
2018-06-28T06:40:55.215Z,4.70
2018-06-28T06:43:23.586Z,4.62
2018-06-28T06:45:51.893Z,4.45
2018-06-28T06:48:20.220Z,4.40
2018-06-28T06:50:48.537Z,4.15
2018-06-28T06:53:16.874Z,4.25
2018-06-28T06:55:45.253Z,4.28
2018-06-28T06:58:18.401Z,3.77
2018-06-28T07:00:58.588Z,3.77
2018-06-28T07:03:28.664Z,3.80
2018-06-28T07:05:57.052Z,3.62
2018-06-28T07:08:25.472Z,3.45
2018-06-28T07:10:53.884Z,3.87
2018-06-28T07:13:22.199Z,3.50
2018-06-28T07:15:50.588Z,3.52
2018-06-28T07:18:19.001Z,3.45
2018-06-28T07:20:47.435Z,3.70
2018-06-28T07:23:15.888Z,3.22
2018-06-28T07:25:44.258Z,3.92
2018-06-28T07:28:12.673Z,2.72
2018-06-28T07:30:41.063Z,2.95
2018-06-28T07:33:09.490Z,3.20
2018-06-28T07:35:37.960Z,3.30
2018-06-28T07:38:06.389Z,2.72
2018-06-28T07:40:34.729Z,2.85
2018-06-28T07:43:03.091Z,2.95
2018-06-28T07:45:32.344Z,2.50
2018-06-28T07:48:00.763Z,2.30
2018-06-28T07:50:29.155Z,2.72
2018-06-28T07:52:57.494Z,2.25
2018-06-28T07:55:25.860Z,2.95
2018-06-28T07:57:54.234Z,2.27
2018-06-28T08:00:22.628Z,2.40
2018-06-28T08:02:50.973Z,2.17
2018-06-28T08:05:19.313Z,2.65
2018-06-28T08:07:47.726Z,2.17
2018-06-28T08:10:16.212Z,2.25
2018-06-28T08:12:44.631Z,2.40
2018-06-28T08:15:13.504Z,2.10
2018-06-28T08:17:41.917Z,2.58
2018-06-28T08:20:10.279Z,2.05
2018-06-28T08:22:38.684Z,2.25
2018-06-28T08:25:07.051Z,2.70
2018-06-28T08:27:35.501Z,2.25
2018-06-28T08:30:03.935Z,2.47
2018-06-28T08:32:33.107Z,2.20
2018-06-28T08:35:01.401Z,2.27
2018-06-28T08:37:29.708Z,2.40
2018-06-28T08:39:58.117Z,2.45
2018-06-28T08:42:26.520Z,2.37
2018-06-28T08:44:54.876Z,2.17
2018-06-28T08:47:23.412Z,2.22
2018-06-28T08:49:51.770Z,2.50
2018-06-28T08:52:20.244Z,2.35
2018-06-28T08:54:48.803Z,3.12
2018-06-28T08:57:17.141Z,2.50
2018-06-28T08:59:45.553Z,2.22
2018-06-28T09:02:13.891Z,1.85
2018-06-28T09:04:42.274Z,1.90
2018-06-28T09:07:10.738Z,1.90
2018-06-28T09:09:39.048Z,1.77
2018-06-28T09:12:07.109Z,2.42
2018-06-28T09:14:35.475Z,2.10
2018-06-28T09:17:03.845Z,2.33
2018-06-28T09:19:32.285Z,1.47
2018-06-28T09:22:02.039Z,2.00
2018-06-28T09:24:30.597Z,1.90
2018-06-28T09:26:59.069Z,1.90
2018-06-28T09:29:27.592Z,1.52
2018-06-28T09:31:55.998Z,1.95
2018-06-28T09:34:24.494Z,2.08
2018-06-28T09:36:52.830Z,1.57
2018-06-28T09:39:21.154Z,1.70
2018-06-28T09:41:49.488Z,1.65
2018-06-28T09:44:17.849Z,1.65
2018-06-28T09:46:46.226Z,1.50
2018-06-28T09:49:14.648Z,1.82
2018-06-28T09:51:43.063Z,1.40
2018-06-28T09:54:11.666Z,2.17
2018-06-28T09:56:40.009Z,1.65
2018-06-28T09:59:08.400Z,1.90
2018-06-28T10:01:36.739Z,1.77
2018-06-28T10:04:05.238Z,2.02
2018-06-28T10:06:34.537Z,1.52
2018-06-28T10:09:03.149Z,1.52
2018-06-28T10:11:31.836Z,2.37
2018-06-28T10:14:00.180Z,1.77
2018-06-28T10:16:28.557Z,1.62
2018-06-28T10:18:56.897Z,1.50
2018-06-28T10:21:25.340Z,1.67
2018-06-28T10:23:53.650Z,1.55
2018-06-28T10:26:22.016Z,1.60
2018-06-28T10:28:50.370Z,1.22
2018-06-28T10:31:18.794Z,1.57
2018-06-28T10:33:47.150Z,1.62
2018-06-28T10:36:15.539Z,1.55
2018-06-28T10:38:44.440Z,1.60
2018-06-28T10:41:12.770Z,1.75
2018-06-28T10:43:41.247Z,2.40
2018-06-28T10:46:09.862Z,1.70
2018-06-28T10:48:38.335Z,1.80
2018-06-28T10:51:06.822Z,2.10
2018-06-28T10:53:35.179Z,1.70
2018-06-28T10:56:03.477Z,1.57
2018-06-28T10:58:31.864Z,1.70
2018-06-28T11:01:00.192Z,1.40
2018-06-28T11:03:28.517Z,1.67
2018-06-28T11:05:56.969Z,1.92
2018-06-28T11:08:25.432Z,1.55
2018-06-28T11:10:53.692Z,1.50
2018-06-28T11:13:22.002Z,1.30
2018-06-28T11:15:51.506Z,1.50
2018-06-28T11:18:19.920Z,1.42
2018-06-28T11:20:51.440Z,1.70
2018-06-28T11:23:19.895Z,1.30
2018-06-28T11:25:49.375Z,1.60
2018-06-28T11:28:17.819Z,1.25
2018-06-28T11:30:48.508Z,1.17
2018-06-28T11:33:17.035Z,1.25
2018-06-28T11:35:45.614Z,1.27
2018-06-28T11:38:14.046Z,1.45
2018-06-28T11:40:42.430Z,1.57
2018-06-28T11:43:10.808Z,1.32
2018-06-28T11:45:39.113Z,1.40
2018-06-28T11:48:07.542Z,1.32
2018-06-28T11:50:35.896Z,1.32
2018-06-28T11:53:04.267Z,1.05
2018-06-28T11:55:32.688Z,1.45
2018-06-28T11:58:01.025Z,1.37
2018-06-28T12:00:29.586Z,1.40
2018-06-28T12:02:58.095Z,1.52
2018-06-28T12:05:26.503Z,1.50
2018-06-28T12:07:55.059Z,1.40
2018-06-28T12:10:23.620Z,1.50
2018-06-28T12:12:52.849Z,1.50
2018-06-28T12:15:21.436Z,1.22
2018-06-28T12:17:50.816Z,1.50
2018-06-28T12:20:19.141Z,1.40
2018-06-28T12:22:47.443Z,1.27
2018-06-28T12:25:15.790Z,1.65
2018-06-28T12:27:43.832Z,1.35
2018-06-28T12:30:12.268Z,1.20
2018-06-28T12:32:40.618Z,1.60
2018-06-28T12:35:09.056Z,1.30
2018-06-28T12:37:37.484Z,1.37
2018-06-28T12:40:06.149Z,1.30
2018-06-28T12:42:34.511Z,1.72
2018-06-28T12:45:02.907Z,1.35
2018-06-28T12:47:54.479Z,1.57
2018-06-28T12:50:22.865Z,1.40
2018-06-28T12:53:07.922Z,1.20
2018-06-28T12:57:17.321Z,1.12
2018-06-28T12:59:45.735Z,1.55
2018-06-28T13:02:14.116Z,1.35
2018-06-28T13:04:42.495Z,1.60
2018-06-28T13:07:10.886Z,1.30
2018-06-28T13:09:39.279Z,1.30
2018-06-28T13:12:07.864Z,1.42
2018-06-28T13:14:36.234Z,1.20
2018-06-28T13:17:04.691Z,0.98
2018-06-28T13:19:33.243Z,1.30
2018-06-28T13:22:01.675Z,1.50
2018-06-28T13:24:30.007Z,1.10
2018-06-28T13:26:58.383Z,1.00
2018-06-28T13:29:26.745Z,1.40
2018-06-28T13:31:55.229Z,1.30
2018-06-28T13:34:23.704Z,1.00
2018-06-28T13:36:52.047Z,1.42
2018-06-28T13:39:20.451Z,1.32
2018-06-28T13:41:48.811Z,1.20
2018-06-28T13:44:17.134Z,1.57
2018-06-28T13:46:45.550Z,1.20
2018-06-28T13:49:13.979Z,1.02
2018-06-28T13:51:42.355Z,1.10
2018-06-28T13:54:10.834Z,1.45
2018-06-28T13:56:39.335Z,1.12
2018-06-28T13:59:07.541Z,1.10
2018-06-28T14:01:38.358Z,1.20
2018-06-28T14:04:06.779Z,1.15
2018-06-28T14:06:35.144Z,1.20
2018-06-28T14:09:03.653Z,1.00
2018-06-28T14:11:32.014Z,1.12
2018-06-28T14:14:01.309Z,1.30
2018-06-28T14:16:29.715Z,1.27
2018-06-28T14:18:58.073Z,1.50
2018-06-28T14:21:27.526Z,1.40
2018-06-28T14:23:55.870Z,1.20
2018-06-28T14:26:24.291Z,1.70
2018-06-28T14:28:52.646Z,1.42
2018-06-28T14:31:21.122Z,1.10
2018-06-28T14:33:49.615Z,1.40
2018-06-28T14:36:18.134Z,1.32
2018-06-28T14:38:46.592Z,1.40
2018-06-28T14:41:15.113Z,1.27
2018-06-28T14:43:43.532Z,1.35
2018-06-28T14:46:11.580Z,1.20
2018-06-28T14:48:39.907Z,1.55
2018-06-28T14:51:08.816Z,1.45
2018-06-28T14:53:37.195Z,1.15
2018-06-28T14:56:12.368Z,1.20
2018-06-28T14:58:40.868Z,1.20
2018-06-28T15:01:09.139Z,1.65
2018-06-28T15:03:37.508Z,1.20
2018-06-28T15:06:05.863Z,1.52
2018-06-28T15:08:34.267Z,1.30
2018-06-28T15:11:03.632Z,1.10
2018-06-28T15:13:32.090Z,1.27
2018-06-28T15:16:00.494Z,1.30
2018-06-28T15:18:28.821Z,1.40
2018-06-28T15:20:56.977Z,1.60
2018-06-28T15:23:25.483Z,1.10
2018-06-28T15:25:54.011Z,1.37
2018-06-28T15:28:22.469Z,1.22
2018-06-28T15:30:51.273Z,1.42
2018-06-28T15:33:20.761Z,1.35
2018-06-28T15:35:49.207Z,1.37
2018-06-28T15:38:17.840Z,1.20
2018-06-28T15:40:46.257Z,1.17
2018-06-28T15:43:14.575Z,0.95
2018-06-28T15:45:43.093Z,1.17
2018-06-28T15:48:11.816Z,1.45
2018-06-28T15:50:40.175Z,1.20
2018-06-28T15:53:08.884Z,1.57
2018-06-28T15:55:37.236Z,1.00
2018-06-28T15:58:06.402Z,0.95
2018-06-28T16:00:34.753Z,1.02
2018-06-28T16:03:03.108Z,1.10
2018-06-28T16:05:31.588Z,1.02
2018-06-28T16:08:00.056Z,1.00
2018-06-28T16:10:29.339Z,1.45
2018-06-28T16:12:57.843Z,1.12
2018-06-28T16:15:25.955Z,1.20
2018-06-28T16:17:54.341Z,1.20
2018-06-28T16:20:22.754Z,1.40
2018-06-28T16:22:51.095Z,1.20
2018-06-28T16:25:19.444Z,1.40
2018-06-28T16:27:47.804Z,1.05
2018-06-28T16:30:16.220Z,1.00
2018-06-28T16:32:44.714Z,1.12
2018-06-28T16:35:13.047Z,1.02
2018-06-28T16:37:41.442Z,1.17
2018-06-28T16:40:09.522Z,1.10
2018-06-28T16:42:37.986Z,1.25
2018-06-28T16:45:06.431Z,0.90
2018-06-28T16:47:34.812Z,1.42
2018-06-28T16:50:03.263Z,1.35
2018-06-28T16:52:31.577Z,1.20
2018-06-28T16:54:59.981Z,1.40
2018-06-28T16:57:28.390Z,1.20
2018-06-28T16:59:56.780Z,1.12
2018-06-28T17:02:25.188Z,1.10
2018-06-28T17:04:56.816Z,1.10
2018-06-28T17:07:25.273Z,1.15
2018-06-28T17:09:53.388Z,1.17
2018-06-28T17:12:21.762Z,1.17
2018-06-28T17:14:50.079Z,1.10
2018-06-28T17:17:18.477Z,0.98
2018-06-28T17:19:46.941Z,1.95
2018-06-28T17:22:15.326Z,1.00
2018-06-28T17:24:43.472Z,1.20
2018-06-28T17:27:11.898Z,1.00
2018-06-28T17:29:40.646Z,1.40
2018-06-28T17:32:09.234Z,1.32
2018-06-28T17:34:37.593Z,1.22
2018-06-28T17:37:05.962Z,0.90
2018-06-28T17:39:34.550Z,1.02
2018-06-28T17:42:02.944Z,1.30
2018-06-28T17:44:31.234Z,1.40
2018-06-28T17:46:59.739Z,1.07
2018-06-28T17:49:28.191Z,1.17
2018-06-28T17:51:56.508Z,1.57
2018-06-28T17:54:24.849Z,1.17
2018-06-28T17:56:53.159Z,1.00
2018-06-28T17:59:21.613Z,1.10
2018-06-28T18:01:50.841Z,1.10
2018-06-28T18:04:19.354Z,1.10
2018-06-28T18:06:47.890Z,1.22
2018-06-28T18:09:16.244Z,0.80
2018-06-28T18:11:44.607Z,0.90
2018-06-28T18:14:13.068Z,1.15
2018-06-28T18:16:41.409Z,1.17
2018-06-28T18:19:09.830Z,0.82
2018-06-28T18:21:38.217Z,1.07
2018-06-28T18:24:06.608Z,1.10
2018-06-28T18:26:34.957Z,1.07
2018-06-28T18:29:03.350Z,2.20
2018-06-28T18:31:31.778Z,1.60
2018-06-28T18:34:00.382Z,2.37
2018-06-28T18:36:28.813Z,0.80
2018-06-28T18:38:57.432Z,1.20
2018-06-28T18:41:25.983Z,1.10
2018-06-28T18:43:54.673Z,1.62
2018-06-28T18:46:23.209Z,2.25
2018-06-28T18:48:51.611Z,1.37
2018-06-28T18:51:20.010Z,1.10
2018-06-28T18:53:48.083Z,1.55
2018-06-28T18:56:16.385Z,1.07
2018-06-28T18:58:44.500Z,1.27
2018-06-28T19:01:12.873Z,1.12
2018-06-28T19:03:41.273Z,1.30
2018-06-28T19:06:09.692Z,1.52
2018-06-28T19:08:38.062Z,1.75
2018-06-28T19:11:07.048Z,1.10
2018-06-28T19:13:40.004Z,1.40
2018-06-28T19:16:13.751Z,1.40
2018-06-28T19:18:42.055Z,1.45
2018-06-28T19:21:16.389Z,1.00
2018-06-28T19:23:49.620Z,1.35
2018-06-28T19:26:18.893Z,1.10
2018-06-28T19:28:48.162Z,1.40
2018-06-28T19:31:21.866Z,1.22
2018-06-28T19:33:50.463Z,0.98
2018-06-28T19:36:18.959Z,1.02
2018-06-28T19:38:52.524Z,0.90
2018-06-28T19:41:26.384Z,1.22
2018-06-28T19:43:54.757Z,1.10
2018-06-28T19:46:23.117Z,1.15
2018-06-28T19:48:51.415Z,1.10
2018-06-28T19:51:25.060Z,1.27
2018-06-28T19:53:53.675Z,0.90
2018-06-28T19:56:22.039Z,1.57
2018-06-28T19:58:50.505Z,1.32
2018-06-28T20:01:24.306Z,1.12
2018-06-28T20:03:58.780Z,0.82
2018-06-28T20:06:27.117Z,1.30
2018-06-28T20:08:55.581Z,1.25
2018-06-28T20:11:23.922Z,1.10
2018-06-28T20:13:57.509Z,1.00
2018-06-28T20:16:31.951Z,1.00
2018-06-28T20:19:05.633Z,1.10
2018-06-28T20:21:34.010Z,1.27
2018-06-28T20:24:02.358Z,1.25
2018-06-28T20:27:38.803Z,1.17
2018-06-28T20:30:12.805Z,1.20
2018-06-28T20:32:46.560Z,1.17
2018-06-28T20:35:15.289Z,0.85
2018-06-28T20:37:44.869Z,1.15
2018-06-28T20:40:13.535Z,1.32
2018-06-28T20:42:42.068Z,1.25
2018-06-28T20:45:10.602Z,1.40
2018-06-28T20:47:38.979Z,1.10
2018-06-28T20:50:07.469Z,1.47
2018-06-28T20:52:35.814Z,1.05
2018-06-28T20:55:04.236Z,1.40
2018-06-28T20:57:32.673Z,1.40
2018-06-28T21:00:01.617Z,1.50
2018-06-28T21:02:30.048Z,1.42
2018-06-28T21:04:58.461Z,1.98
2018-06-28T21:07:32.446Z,2.17
2018-06-28T21:10:02.428Z,1.55
2018-06-28T21:12:30.761Z,1.95
2018-06-28T21:14:59.065Z,1.47
2018-06-28T21:17:28.953Z,1.70
2018-06-28T21:19:57.333Z,3.52
2018-06-28T21:22:26.039Z,2.72
2018-06-28T21:24:54.693Z,1.60
2018-06-28T21:27:23.194Z,1.70
2018-06-28T21:29:51.762Z,1.80
2018-06-28T21:32:20.647Z,1.75
2018-06-28T21:34:49.276Z,2.10
2018-06-28T21:37:17.591Z,1.45
2018-06-28T21:39:46.012Z,1.40
2018-06-28T21:42:14.502Z,1.45
2018-06-28T21:44:42.818Z,1.98
2018-06-28T21:47:11.246Z,1.52
2018-06-28T21:49:39.616Z,3.02
2018-06-28T21:52:08.092Z,1.55
2018-06-28T21:54:36.479Z,1.82
2018-06-28T21:57:04.861Z,2.17
2018-06-28T21:59:33.222Z,1.90
2018-06-28T22:02:01.552Z,1.60
2018-06-28T22:04:30.022Z,3.35
2018-06-28T22:06:58.578Z,2.00
2018-06-28T22:09:27.144Z,1.72
2018-06-28T22:11:55.495Z,1.72
2018-06-28T22:14:25.175Z,3.02
2018-06-28T22:16:53.489Z,1.20
2018-06-28T22:19:21.827Z,2.37
2018-06-28T22:21:50.183Z,3.12
2018-06-28T22:24:18.609Z,1.60
2018-06-28T22:26:46.980Z,2.12
2018-06-28T22:29:15.316Z,2.22
2018-06-28T22:31:43.754Z,1.55
2018-06-28T22:34:12.139Z,1.62
2018-06-28T22:36:40.473Z,1.67
2018-06-28T22:39:11.295Z,1.50
2018-06-28T22:41:39.999Z,1.85
2018-06-28T22:44:08.450Z,1.60
2018-06-28T22:46:37.326Z,1.90
2018-06-28T22:49:06.407Z,1.50
2018-06-28T22:51:34.792Z,1.40
2018-06-28T22:54:03.216Z,1.25
2018-06-28T22:56:31.725Z,1.50
2018-06-28T22:59:00.131Z,1.35
2018-06-28T23:01:28.460Z,1.60
2018-06-28T23:03:56.872Z,1.27
2018-06-28T23:06:25.248Z,1.32
2018-06-28T23:08:53.578Z,1.32
2018-06-28T23:11:21.931Z,1.32
2018-06-28T23:13:50.243Z,1.70
2018-06-28T23:16:18.688Z,1.50
2018-06-28T23:18:47.004Z,1.75
2018-06-28T23:21:16.152Z,1.20
2018-06-28T23:23:44.632Z,1.45
2018-06-28T23:26:13.289Z,1.45
2018-06-28T23:28:41.742Z,1.32
2018-06-28T23:31:10.185Z,1.30
2018-06-28T23:33:38.508Z,1.27
2018-06-28T23:36:06.905Z,1.32
2018-06-28T23:38:35.288Z,1.17
2018-06-28T23:41:04.577Z,1.40
2018-06-28T23:43:33.260Z,1.50
2018-06-28T23:46:03.713Z,1.30
2018-06-28T23:48:32.021Z,1.42
2018-06-28T23:51:00.514Z,1.52
2018-06-28T23:53:30.020Z,1.35
2018-06-28T23:55:58.489Z,1.27
2018-06-28T23:58:28.454Z,1.35
